JLY1253 SBCY-SBGR
Flight info
| Callsign | JLY1253 |
|---|---|
| Flight time | 1h 41m |
| Altitude | 33000 |
| Route | DIKUN UZ82 ANSOK UZ42 ZARES |
| Aircraft | B38M/M-SDE1FGHILORVWXY/HB1 |
Departure
| Time | 2026-04-23 01:16 |
|---|---|
| Airport | Várzea Grande–Marechal Rondon International Airport (SBCY) |
Arrival
| Time | 2026-04-23 02:57 |
|---|---|
| Airport | São Paulo/Guarulhos–Governor André Franco Montoro International Airport (SBGR) |
| Time | Latitude | Longitude | Altitude | Speed | Heading |
|---|---|---|---|---|---|
| 2026-04-23 01:03 | -15.65042 | -56.11981 | 599 ft | 0 kts | 242° |
| 2026-04-23 01:08 | -15.65040 | -56.11976 | 572 ft | 2 kts | 240° |
| 2026-04-23 01:08 | -15.65028 | -56.11960 | 599 ft | 3 kts | 218° |
| 2026-04-23 01:08 | -15.65012 | -56.11952 | 599 ft | 3 kts | 178° |
| 2026-04-23 01:09 | -15.65001 | -56.11955 | 599 ft | 1 kts | 153° |
| 2026-04-23 01:11 | -15.65003 | -56.11954 | 599 ft | 1 kts | 153° |
| 2026-04-23 01:12 | -15.65015 | -56.11948 | 599 ft | 3 kts | 153° |
| 2026-04-23 01:12 | -15.65041 | -56.11934 | 599 ft | 6 kts | 153° |
| 2026-04-23 01:12 | -15.65083 | -56.11910 | 599 ft | 8 kts | 141° |
| 2026-04-23 01:12 | -15.65079 | -56.11861 | 600 ft | 8 kts | 60° |
| 2026-04-23 01:13 | -15.65031 | -56.11817 | 600 ft | 11 kts | 3° |
| 2026-04-23 01:13 | -15.64947 | -56.11853 | 599 ft | 16 kts | 333° |
| 2026-04-23 01:13 | -15.64836 | -56.11912 | 598 ft | 20 kts | 333° |
| 2026-04-23 01:13 | -15.64702 | -56.11983 | 598 ft | 23 kts | 333° |
| 2026-04-23 01:14 | -15.64553 | -56.12062 | 597 ft | 25 kts | 333° |
| 2026-04-23 01:14 | -15.64433 | -56.12149 | 599 ft | 12 kts | 286° |
| 2026-04-23 01:14 | -15.64402 | -56.12168 | 599 ft | 5 kts | 45° |
| 2026-04-23 01:14 | -15.64409 | -56.12139 | 598 ft | 5 kts | 141° |
| 2026-04-23 01:15 | -15.64447 | -56.12119 | 598 ft | 7 kts | 154° |
| 2026-04-23 01:15 | -15.64495 | -56.12094 | 598 ft | 10 kts | 153° |
| 2026-04-23 01:15 | -15.64715 | -56.11977 | 598 ft | 75 kts | 153° |
| 2026-04-23 01:15 | -15.65413 | -56.11609 | 602 ft | 147 kts | 153° |
| 2026-04-23 01:16 | -15.66435 | -56.11065 | 1006 ft | 172 kts | 154° |
| 2026-04-23 01:16 | -15.67514 | -56.10516 | 1973 ft | 169 kts | 154° |
| 2026-04-23 01:16 | -15.68590 | -56.09965 | 2773 ft | 182 kts | 153° |
| 2026-04-23 01:16 | -15.69792 | -56.09345 | 3272 ft | 206 kts | 153° |
| 2026-04-23 01:17 | -15.71161 | -56.08639 | 3753 ft | 233 kts | 152° |
| 2026-04-23 01:17 | -15.72675 | -56.07857 | 4422 ft | 252 kts | 152° |
| 2026-04-23 01:17 | -15.74296 | -56.07015 | 5162 ft | 267 kts | 151° |
| 2026-04-23 01:17 | -15.75951 | -56.06129 | 6170 ft | 270 kts | 150° |
| 2026-04-23 01:18 | -15.77636 | -56.05220 | 7066 ft | 275 kts | 150° |
| 2026-04-23 01:18 | -15.79345 | -56.04298 | 8011 ft | 279 kts | 150° |
| 2026-04-23 01:18 | -15.81075 | -56.03363 | 8930 ft | 282 kts | 150° |
| 2026-04-23 01:18 | -15.82830 | -56.02415 | 9857 ft | 286 kts | 150° |
| 2026-04-23 01:19 | -15.84622 | -56.01446 | 10554 ft | 298 kts | 150° |
| 2026-04-23 01:19 | -15.86522 | -56.00419 | 10958 ft | 318 kts | 150° |
| 2026-04-23 01:19 | -15.88541 | -55.99327 | 11387 ft | 335 kts | 150° |
| 2026-04-23 01:19 | -15.90642 | -55.98190 | 11957 ft | 345 kts | 150° |
| 2026-04-23 01:20 | -15.92568 | -55.96740 | 12738 ft | 343 kts | 131° |
| 2026-04-23 01:20 | -15.94131 | -55.94846 | 13437 ft | 348 kts | 129° |
| 2026-04-23 01:20 | -15.95709 | -55.92914 | 14099 ft | 352 kts | 129° |
| 2026-04-23 01:20 | -15.97293 | -55.90953 | 14723 ft | 357 kts | 129° |
| 2026-04-23 01:21 | -15.98892 | -55.88963 | 15315 ft | 361 kts | 129° |
| 2026-04-23 01:21 | -16.00506 | -55.86946 | 15905 ft | 365 kts | 129° |
| 2026-04-23 01:21 | -16.02138 | -55.84906 | 16464 ft | 369 kts | 129° |
| 2026-04-23 01:21 | -16.03783 | -55.82847 | 17015 ft | 374 kts | 129° |
| 2026-04-23 01:22 | -16.05457 | -55.80750 | 17570 ft | 377 kts | 129° |
| 2026-04-23 01:22 | -16.07141 | -55.78641 | 18113 ft | 381 kts | 129° |
| 2026-04-23 01:22 | -16.08839 | -55.76514 | 18605 ft | 383 kts | 129° |
| 2026-04-23 01:22 | -16.10546 | -55.74374 | 19090 ft | 385 kts | 129° |
| 2026-04-23 01:23 | -16.12262 | -55.72222 | 19552 ft | 388 kts | 129° |
| 2026-04-23 01:23 | -16.13989 | -55.70057 | 20022 ft | 390 kts | 129° |
| 2026-04-23 01:23 | -16.15727 | -55.67877 | 20482 ft | 392 kts | 129° |
| 2026-04-23 01:23 | -16.17472 | -55.65687 | 20933 ft | 395 kts | 129° |
| 2026-04-23 01:24 | -16.19227 | -55.63484 | 21377 ft | 397 kts | 129° |
| 2026-04-23 01:24 | -16.20994 | -55.61266 | 21818 ft | 399 kts | 129° |
| 2026-04-23 01:24 | -16.22770 | -55.59034 | 22251 ft | 402 kts | 129° |
| 2026-04-23 01:24 | -16.24557 | -55.56790 | 22684 ft | 404 kts | 129° |
| 2026-04-23 01:25 | -16.26332 | -55.54560 | 23081 ft | 407 kts | 129° |
| 2026-04-23 01:25 | -16.28166 | -55.52253 | 23486 ft | 409 kts | 129° |
| 2026-04-23 01:25 | -16.29961 | -55.49996 | 23852 ft | 411 kts | 129° |
| 2026-04-23 01:25 | -16.31789 | -55.47695 | 24159 ft | 414 kts | 129° |
| 2026-04-23 01:26 | -16.33628 | -55.45382 | 24477 ft | 416 kts | 128° |
| 2026-04-23 01:26 | -16.35479 | -55.43051 | 24794 ft | 419 kts | 128° |
| 2026-04-23 01:26 | -16.37337 | -55.40705 | 25102 ft | 421 kts | 127° |
| 2026-04-23 01:26 | -16.38986 | -55.38180 | 25403 ft | 423 kts | 122° |
| 2026-04-23 01:27 | -16.40610 | -55.35617 | 25701 ft | 425 kts | 122° |
| 2026-04-23 01:27 | -16.42260 | -55.33049 | 26013 ft | 428 kts | 122° |
| 2026-04-23 01:27 | -16.43928 | -55.30470 | 26314 ft | 430 kts | 122° |
| 2026-04-23 01:27 | -16.45608 | -55.27879 | 26625 ft | 433 kts | 122° |
| 2026-04-23 01:28 | -16.47299 | -55.25274 | 26919 ft | 435 kts | 122° |
| 2026-04-23 01:28 | -16.48998 | -55.22655 | 27209 ft | 438 kts | 122° |
| 2026-04-23 01:28 | -16.50709 | -55.20017 | 27479 ft | 441 kts | 122° |
| 2026-04-23 01:28 | -16.52430 | -55.17364 | 27783 ft | 443 kts | 122° |
| 2026-04-23 01:29 | -16.54158 | -55.14698 | 28069 ft | 445 kts | 122° |
| 2026-04-23 01:29 | -16.55895 | -55.12017 | 28357 ft | 447 kts | 122° |
| 2026-04-23 01:29 | -16.57641 | -55.09323 | 28625 ft | 450 kts | 122° |
| 2026-04-23 01:29 | -16.59396 | -55.06612 | 28891 ft | 452 kts | 122° |
| 2026-04-23 01:30 | -16.61160 | -55.03887 | 29176 ft | 455 kts | 122° |
| 2026-04-23 01:30 | -16.62934 | -55.01146 | 29440 ft | 457 kts | 122° |
| 2026-04-23 01:30 | -16.64712 | -54.98397 | 29733 ft | 458 kts | 122° |
| 2026-04-23 01:30 | -16.66498 | -54.95634 | 29997 ft | 460 kts | 122° |
| 2026-04-23 01:31 | -16.68291 | -54.92860 | 30214 ft | 463 kts | 122° |
| 2026-04-23 01:31 | -16.70092 | -54.90072 | 30437 ft | 464 kts | 122° |
| 2026-04-23 01:31 | -16.71902 | -54.87270 | 30631 ft | 467 kts | 122° |
| 2026-04-23 01:31 | -16.73721 | -54.84451 | 30849 ft | 469 kts | 122° |
| 2026-04-23 01:32 | -16.75546 | -54.81624 | 31084 ft | 471 kts | 122° |
| 2026-04-23 01:32 | -16.77377 | -54.78785 | 31297 ft | 472 kts | 122° |
| 2026-04-23 01:32 | -16.79213 | -54.75936 | 31520 ft | 474 kts | 122° |
| 2026-04-23 01:32 | -16.81055 | -54.73078 | 31745 ft | 475 kts | 122° |
| 2026-04-23 01:33 | -16.82902 | -54.70211 | 31973 ft | 477 kts | 122° |
| 2026-04-23 01:33 | -16.84756 | -54.67332 | 32179 ft | 479 kts | 122° |
| 2026-04-23 01:33 | -16.86612 | -54.64449 | 32439 ft | 479 kts | 122° |
| 2026-04-23 01:33 | -16.88469 | -54.61563 | 32744 ft | 478 kts | 122° |
| 2026-04-23 01:34 | -16.90323 | -54.58680 | 32971 ft | 479 kts | 122° |
| 2026-04-23 01:34 | -16.92179 | -54.55793 | 33010 ft | 478 kts | 122° |
| 2026-04-23 01:34 | -16.95852 | -54.50077 | 33009 ft | 477 kts | 122° |
| 2026-04-23 01:35 | -16.99544 | -54.44325 | 33001 ft | 476 kts | 122° |
| 2026-04-23 01:35 | -17.03231 | -54.38577 | 33009 ft | 476 kts | 122° |
| 2026-04-23 01:36 | -17.06919 | -54.32822 | 33009 ft | 476 kts | 122° |
| 2026-04-23 01:36 | -17.10603 | -54.27069 | 33019 ft | 476 kts | 122° |
| 2026-04-23 01:37 | -17.14285 | -54.21314 | 33014 ft | 476 kts | 122° |
| 2026-04-23 01:37 | -17.17965 | -54.15557 | 33019 ft | 476 kts | 122° |
| 2026-04-23 01:38 | -17.21647 | -54.09794 | 33022 ft | 476 kts | 122° |
| 2026-04-23 01:38 | -17.25327 | -54.04029 | 33020 ft | 476 kts | 122° |
| 2026-04-23 01:39 | -17.29008 | -53.98261 | 33022 ft | 477 kts | 123° |
| 2026-04-23 01:39 | -17.31155 | -53.95627 | 33001 ft | 477 kts | 136° |
| 2026-04-23 01:39 | -17.33614 | -53.93287 | 33016 ft | 479 kts | 135° |
| 2026-04-23 01:40 | -17.38494 | -53.88538 | 33023 ft | 479 kts | 136° |
| 2026-04-23 01:40 | -17.43397 | -53.83817 | 33023 ft | 479 kts | 136° |
| 2026-04-23 01:41 | -17.48301 | -53.79096 | 33020 ft | 479 kts | 136° |
| 2026-04-23 01:41 | -17.53205 | -53.74371 | 33021 ft | 479 kts | 136° |
| 2026-04-23 01:42 | -17.58108 | -53.69644 | 33019 ft | 479 kts | 136° |
| 2026-04-23 01:42 | -17.63010 | -53.64914 | 33023 ft | 479 kts | 136° |
| 2026-04-23 01:43 | -17.67916 | -53.60177 | 33015 ft | 479 kts | 136° |
| 2026-04-23 01:43 | -17.72818 | -53.55440 | 33019 ft | 479 kts | 136° |
| 2026-04-23 01:44 | -17.77720 | -53.50700 | 33025 ft | 479 kts | 136° |
| 2026-04-23 01:44 | -17.82587 | -53.45988 | 33030 ft | 479 kts | 137° |
| 2026-04-23 01:45 | -17.87527 | -53.41203 | 33035 ft | 480 kts | 136° |
| 2026-04-23 01:45 | -17.92401 | -53.36479 | 33033 ft | 480 kts | 136° |
| 2026-04-23 01:46 | -17.97306 | -53.31721 | 33040 ft | 480 kts | 136° |
| 2026-04-23 01:46 | -18.02212 | -53.26957 | 33040 ft | 480 kts | 136° |
| 2026-04-23 01:47 | -18.07118 | -53.22190 | 33049 ft | 480 kts | 136° |
| 2026-04-23 01:47 | -18.12022 | -53.17420 | 33045 ft | 481 kts | 136° |
| 2026-04-23 01:48 | -18.16929 | -53.12645 | 33055 ft | 481 kts | 136° |
| 2026-04-23 01:48 | -18.21841 | -53.07861 | 33055 ft | 481 kts | 136° |
| 2026-04-23 01:49 | -18.26744 | -53.03081 | 33060 ft | 480 kts | 136° |
| 2026-04-23 01:49 | -18.31642 | -52.98303 | 33062 ft | 480 kts | 137° |
| 2026-04-23 01:50 | -18.36538 | -52.93522 | 33063 ft | 480 kts | 137° |
| 2026-04-23 01:50 | -18.41432 | -52.88740 | 33064 ft | 480 kts | 137° |
| 2026-04-23 01:51 | -18.46325 | -52.83955 | 33068 ft | 480 kts | 137° |
| 2026-04-23 01:51 | -18.51214 | -52.79170 | 33069 ft | 480 kts | 137° |
| 2026-04-23 01:52 | -18.55285 | -52.75182 | 33069 ft | 481 kts | 137° |
| 2026-04-23 01:52 | -18.60177 | -52.70386 | 33065 ft | 480 kts | 137° |
| 2026-04-23 01:53 | -18.65067 | -52.65589 | 33063 ft | 480 kts | 137° |
| 2026-04-23 01:53 | -18.69953 | -52.60792 | 33066 ft | 480 kts | 137° |
| 2026-04-23 01:54 | -18.74843 | -52.55987 | 33060 ft | 482 kts | 137° |
| 2026-04-23 01:54 | -18.79759 | -52.51153 | 33063 ft | 483 kts | 137° |
| 2026-04-23 01:55 | -18.84661 | -52.46328 | 33058 ft | 482 kts | 137° |
| 2026-04-23 01:55 | -18.89560 | -52.41503 | 33060 ft | 482 kts | 137° |
| 2026-04-23 01:56 | -18.94450 | -52.36663 | 33058 ft | 482 kts | 137° |
| 2026-04-23 01:56 | -18.99345 | -52.31815 | 33057 ft | 483 kts | 137° |
| 2026-04-23 01:57 | -19.04245 | -52.26958 | 33057 ft | 483 kts | 137° |
| 2026-04-23 01:57 | -19.09133 | -52.22109 | 33048 ft | 482 kts | 137° |
| 2026-04-23 01:58 | -19.14020 | -52.17256 | 33034 ft | 482 kts | 137° |
| 2026-04-23 01:58 | -19.18905 | -52.12402 | 33042 ft | 483 kts | 137° |
| 2026-04-23 01:59 | -19.23799 | -52.07534 | 33049 ft | 483 kts | 137° |
| 2026-04-23 01:59 | -19.28694 | -52.02662 | 33054 ft | 483 kts | 137° |
| 2026-04-23 02:00 | -19.33576 | -51.97797 | 33054 ft | 482 kts | 137° |
| 2026-04-23 02:00 | -19.38459 | -51.92928 | 33049 ft | 482 kts | 138° |
| 2026-04-23 02:01 | -19.43315 | -51.88081 | 33045 ft | 483 kts | 137° |
| 2026-04-23 02:01 | -19.48205 | -51.83196 | 33047 ft | 483 kts | 137° |
| 2026-04-23 02:02 | -19.53094 | -51.78308 | 33052 ft | 482 kts | 138° |
| 2026-04-23 02:02 | -19.57970 | -51.73429 | 33046 ft | 482 kts | 138° |
| 2026-04-23 02:03 | -19.62848 | -51.68544 | 33041 ft | 482 kts | 138° |
| 2026-04-23 02:03 | -19.67836 | -51.63793 | 33050 ft | 481 kts | 142° |
| 2026-04-23 02:04 | -19.72995 | -51.59252 | 33048 ft | 482 kts | 141° |
| 2026-04-23 02:04 | -19.78127 | -51.54684 | 33044 ft | 481 kts | 141° |
| 2026-04-23 02:05 | -19.83247 | -51.50122 | 33037 ft | 481 kts | 141° |
| 2026-04-23 02:05 | -19.88371 | -51.45550 | 33039 ft | 481 kts | 141° |
| 2026-04-23 02:06 | -19.93495 | -51.40974 | 33027 ft | 481 kts | 141° |
| 2026-04-23 02:06 | -19.98617 | -51.36396 | 33035 ft | 481 kts | 141° |
| 2026-04-23 02:07 | -20.03737 | -51.31818 | 33032 ft | 481 kts | 141° |
| 2026-04-23 02:07 | -20.08849 | -51.27240 | 33030 ft | 480 kts | 141° |
| 2026-04-23 02:08 | -20.13959 | -51.22662 | 33028 ft | 480 kts | 141° |
| 2026-04-23 02:08 | -20.19029 | -51.18114 | 33032 ft | 480 kts | 141° |
| 2026-04-23 02:09 | -20.24136 | -51.13530 | 33027 ft | 480 kts | 141° |
| 2026-04-23 02:09 | -20.29249 | -51.08948 | 33027 ft | 480 kts | 141° |
| 2026-04-23 02:10 | -20.34360 | -51.04364 | 33030 ft | 480 kts | 141° |
| 2026-04-23 02:10 | -20.39469 | -50.99780 | 33025 ft | 480 kts | 141° |
| 2026-04-23 02:11 | -20.44576 | -50.95191 | 33040 ft | 480 kts | 141° |
| 2026-04-23 02:11 | -20.49690 | -50.90593 | 33033 ft | 481 kts | 141° |
| 2026-04-23 02:12 | -20.54810 | -50.85985 | 33040 ft | 481 kts | 141° |
| 2026-04-23 02:12 | -20.59908 | -50.81393 | 33034 ft | 479 kts | 141° |
| 2026-04-23 02:13 | -20.65003 | -50.76799 | 33036 ft | 480 kts | 141° |
| 2026-04-23 02:13 | -20.70106 | -50.72193 | 33034 ft | 480 kts | 142° |
| 2026-04-23 02:14 | -20.75209 | -50.67585 | 33039 ft | 480 kts | 142° |
| 2026-04-23 02:14 | -20.80306 | -50.62963 | 33039 ft | 480 kts | 141° |
| 2026-04-23 02:15 | -20.87925 | -50.56034 | 33043 ft | 480 kts | 142° |
| 2026-04-23 02:16 | -20.93007 | -50.51406 | 33043 ft | 480 kts | 142° |
| 2026-04-23 02:16 | -20.98089 | -50.46776 | 33044 ft | 480 kts | 142° |
| 2026-04-23 02:17 | -21.03171 | -50.42140 | 33043 ft | 480 kts | 142° |
| 2026-04-23 02:17 | -21.08248 | -50.37507 | 33045 ft | 479 kts | 142° |
| 2026-04-23 02:18 | -21.13296 | -50.32893 | 33049 ft | 481 kts | 142° |
| 2026-04-23 02:18 | -21.18378 | -50.28245 | 33046 ft | 480 kts | 142° |
| 2026-04-23 02:19 | -21.23460 | -50.23592 | 33049 ft | 480 kts | 142° |
| 2026-04-23 02:19 | -21.28542 | -50.18937 | 33049 ft | 481 kts | 142° |
| 2026-04-23 02:20 | -21.33625 | -50.14273 | 33046 ft | 481 kts | 142° |
| 2026-04-23 02:20 | -21.38707 | -50.09608 | 33047 ft | 481 kts | 142° |
| 2026-04-23 02:21 | -21.43791 | -50.04937 | 33045 ft | 481 kts | 142° |
| 2026-04-23 02:21 | -21.48872 | -50.00265 | 33053 ft | 482 kts | 142° |
| 2026-04-23 02:22 | -21.53968 | -49.95573 | 33049 ft | 483 kts | 142° |
| 2026-04-23 02:22 | -21.59058 | -49.90883 | 33048 ft | 482 kts | 142° |
| 2026-04-23 02:23 | -21.64148 | -49.86189 | 33053 ft | 482 kts | 142° |
| 2026-04-23 02:23 | -21.69237 | -49.81491 | 33061 ft | 483 kts | 142° |
| 2026-04-23 02:24 | -21.74334 | -49.76781 | 33053 ft | 483 kts | 142° |
| 2026-04-23 02:24 | -21.79430 | -49.72068 | 33060 ft | 483 kts | 142° |
| 2026-04-23 02:25 | -21.84517 | -49.67358 | 33060 ft | 482 kts | 142° |
| 2026-04-23 02:25 | -21.89606 | -49.62643 | 33065 ft | 484 kts | 142° |
| 2026-04-23 02:26 | -21.94680 | -49.57931 | 33062 ft | 485 kts | 142° |
| 2026-04-23 02:26 | -21.99778 | -49.53182 | 33071 ft | 485 kts | 142° |
| 2026-04-23 02:27 | -22.04874 | -49.48431 | 33072 ft | 484 kts | 142° |
| 2026-04-23 02:27 | -22.09968 | -49.43678 | 33071 ft | 485 kts | 142° |
| 2026-04-23 02:28 | -22.15073 | -49.38910 | 33071 ft | 486 kts | 142° |
| 2026-04-23 02:28 | -22.20178 | -49.34136 | 33082 ft | 486 kts | 142° |
| 2026-04-23 02:29 | -22.25281 | -49.29360 | 33098 ft | 485 kts | 142° |
| 2026-04-23 02:29 | -22.30371 | -49.24590 | 33110 ft | 484 kts | 142° |
| 2026-04-23 02:30 | -22.35460 | -49.19818 | 33123 ft | 484 kts | 142° |
| 2026-04-23 02:30 | -22.39759 | -49.14235 | 33126 ft | 491 kts | 117° |
| 2026-04-23 02:31 | -22.42102 | -49.07257 | 33124 ft | 495 kts | 111° |
| 2026-04-23 02:31 | -22.44316 | -49.00204 | 33124 ft | 497 kts | 110° |
| 2026-04-23 02:32 | -22.46506 | -48.93116 | 33120 ft | 497 kts | 110° |
| 2026-04-23 02:32 | -22.48693 | -48.86020 | 33110 ft | 497 kts | 110° |
| 2026-04-23 02:33 | -22.50877 | -48.78922 | 33092 ft | 497 kts | 110° |
| 2026-04-23 02:33 | -22.53057 | -48.71826 | 33099 ft | 497 kts | 110° |
| 2026-04-23 02:34 | -22.55235 | -48.64721 | 33098 ft | 497 kts | 110° |
| 2026-04-23 02:34 | -22.57394 | -48.57669 | 33099 ft | 497 kts | 110° |
| 2026-04-23 02:35 | -22.59565 | -48.50567 | 33108 ft | 497 kts | 110° |
| 2026-04-23 02:35 | -22.61775 | -48.43483 | 33105 ft | 497 kts | 111° |
| 2026-04-23 02:36 | -22.64019 | -48.36421 | 33111 ft | 495 kts | 111° |
| 2026-04-23 02:36 | -22.66254 | -48.29366 | 33110 ft | 496 kts | 111° |
| 2026-04-23 02:37 | -22.68485 | -48.22306 | 33117 ft | 495 kts | 111° |
| 2026-04-23 02:37 | -22.70711 | -48.15251 | 32913 ft | 491 kts | 111° |
| 2026-04-23 02:37 | -22.71811 | -48.11762 | 32293 ft | 489 kts | 111° |
| 2026-04-23 02:38 | -22.72910 | -48.08272 | 31513 ft | 491 kts | 111° |
| 2026-04-23 02:38 | -22.73979 | -48.04751 | 30781 ft | 493 kts | 109° |
| 2026-04-23 02:38 | -22.74992 | -48.01204 | 30115 ft | 493 kts | 109° |
| 2026-04-23 02:38 | -22.76010 | -47.97666 | 29446 ft | 490 kts | 109° |
| 2026-04-23 02:39 | -22.77203 | -47.94238 | 28820 ft | 484 kts | 119° |
| 2026-04-23 02:39 | -22.78782 | -47.91041 | 28262 ft | 479 kts | 120° |
| 2026-04-23 02:39 | -22.80317 | -47.87847 | 27679 ft | 476 kts | 120° |
| 2026-04-23 02:39 | -22.81845 | -47.84679 | 27121 ft | 472 kts | 120° |
| 2026-04-23 02:40 | -22.83352 | -47.81555 | 26829 ft | 462 kts | 120° |
| 2026-04-23 02:40 | -22.84825 | -47.78501 | 26607 ft | 454 kts | 120° |
| 2026-04-23 02:40 | -22.86288 | -47.75467 | 26349 ft | 453 kts | 120° |
| 2026-04-23 02:40 | -22.87743 | -47.72447 | 26100 ft | 451 kts | 120° |
| 2026-04-23 02:41 | -22.89190 | -47.69441 | 25853 ft | 449 kts | 120° |
| 2026-04-23 02:41 | -22.90630 | -47.66449 | 25602 ft | 446 kts | 120° |
| 2026-04-23 02:41 | -22.92061 | -47.63472 | 25357 ft | 444 kts | 120° |
| 2026-04-23 02:41 | -22.93487 | -47.60505 | 25117 ft | 442 kts | 120° |
| 2026-04-23 02:42 | -22.94427 | -47.58550 | 24959 ft | 441 kts | 120° |
| 2026-04-23 02:42 | -22.95840 | -47.55606 | 24713 ft | 439 kts | 120° |
| 2026-04-23 02:42 | -22.97698 | -47.51734 | 24390 ft | 436 kts | 120° |
| 2026-04-23 02:42 | -22.98642 | -47.49766 | 24231 ft | 434 kts | 120° |
| 2026-04-23 02:43 | -23.00033 | -47.46865 | 23822 ft | 432 kts | 120° |
| 2026-04-23 02:43 | -23.01421 | -47.43969 | 23229 ft | 432 kts | 120° |
| 2026-04-23 02:43 | -23.03247 | -47.40155 | 22541 ft | 428 kts | 120° |
| 2026-04-23 02:43 | -23.04170 | -47.38227 | 22266 ft | 424 kts | 120° |
| 2026-04-23 02:44 | -23.05519 | -47.35407 | 21955 ft | 417 kts | 120° |
| 2026-04-23 02:44 | -23.06845 | -47.32636 | 21671 ft | 412 kts | 120° |
| 2026-04-23 02:44 | -23.08167 | -47.29871 | 21388 ft | 412 kts | 120° |
| 2026-04-23 02:44 | -23.09483 | -47.27115 | 21100 ft | 410 kts | 120° |
| 2026-04-23 02:45 | -23.10793 | -47.24372 | 20823 ft | 408 kts | 120° |
| 2026-04-23 02:45 | -23.11923 | -47.21597 | 20513 ft | 408 kts | 108° |
| 2026-04-23 02:45 | -23.12326 | -47.18559 | 20218 ft | 408 kts | 90° |
| 2026-04-23 02:45 | -23.11893 | -47.15521 | 19972 ft | 409 kts | 73° |
| 2026-04-23 02:46 | -23.10691 | -47.12739 | 19698 ft | 407 kts | 56° |
| 2026-04-23 02:46 | -23.08920 | -47.10354 | 19385 ft | 404 kts | 51° |
| 2026-04-23 02:46 | -23.07419 | -47.07756 | 18582 ft | 410 kts | 67° |
| 2026-04-23 02:46 | -23.06691 | -47.04805 | 17758 ft | 403 kts | 86° |
| 2026-04-23 02:47 | -23.06897 | -47.01817 | 16948 ft | 394 kts | 106° |
| 2026-04-23 02:47 | -23.07965 | -46.99130 | 16300 ft | 382 kts | 124° |
| 2026-04-23 02:47 | -23.09633 | -46.96982 | 15898 ft | 365 kts | 140° |
| 2026-04-23 02:47 | -23.11644 | -46.95403 | 15504 ft | 350 kts | 146° |
| 2026-04-23 02:48 | -23.13581 | -46.93867 | 15122 ft | 338 kts | 144° |
| 2026-04-23 02:48 | -23.15449 | -46.92386 | 14764 ft | 327 kts | 144° |
| 2026-04-23 02:48 | -23.17258 | -46.90955 | 14417 ft | 316 kts | 144° |
| 2026-04-23 02:48 | -23.19015 | -46.89562 | 13938 ft | 311 kts | 144° |
| 2026-04-23 02:49 | -23.20765 | -46.88153 | 13177 ft | 314 kts | 143° |
| 2026-04-23 02:49 | -23.22519 | -46.86739 | 12452 ft | 315 kts | 143° |
| 2026-04-23 02:49 | -23.24286 | -46.85307 | 11687 ft | 318 kts | 143° |
| 2026-04-23 02:49 | -23.26058 | -46.83879 | 11060 ft | 316 kts | 143° |
| 2026-04-23 02:50 | -23.27810 | -46.82471 | 10589 ft | 309 kts | 143° |
| 2026-04-23 02:50 | -23.29517 | -46.81107 | 10229 ft | 300 kts | 143° |
| 2026-04-23 02:50 | -23.31169 | -46.79787 | 9866 ft | 290 kts | 144° |
| 2026-04-23 02:50 | -23.32779 | -46.78515 | 9385 ft | 284 kts | 144° |
| 2026-04-23 02:51 | -23.34364 | -46.77247 | 8903 ft | 280 kts | 144° |
| 2026-04-23 02:51 | -23.35925 | -46.75990 | 8371 ft | 278 kts | 143° |
| 2026-04-23 02:51 | -23.37472 | -46.74739 | 7858 ft | 277 kts | 144° |
| 2026-04-23 02:51 | -23.39005 | -46.73494 | 7382 ft | 273 kts | 143° |
| 2026-04-23 02:52 | -23.40532 | -46.72253 | 6859 ft | 273 kts | 144° |
| 2026-04-23 02:52 | -23.42041 | -46.71023 | 6365 ft | 271 kts | 143° |
| 2026-04-23 02:52 | -23.43312 | -46.69534 | 5933 ft | 267 kts | 124° |
| 2026-04-23 02:52 | -23.44331 | -46.67887 | 5693 ft | 257 kts | 125° |
| 2026-04-23 02:53 | -23.45304 | -46.66332 | 5570 ft | 238 kts | 124° |
| 2026-04-23 02:53 | -23.46188 | -46.64923 | 5410 ft | 214 kts | 124° |
| 2026-04-23 02:53 | -23.46884 | -46.63593 | 5206 ft | 194 kts | 106° |
| 2026-04-23 02:53 | -23.46962 | -46.62189 | 5027 ft | 183 kts | 85° |
| 2026-04-23 02:54 | -23.46752 | -46.60830 | 4807 ft | 178 kts | 78° |
| 2026-04-23 02:54 | -23.46452 | -46.59568 | 4606 ft | 165 kts | 76° |
| 2026-04-23 02:54 | -23.46146 | -46.58390 | 4386 ft | 159 kts | 75° |
| 2026-04-23 02:54 | -23.45843 | -46.57253 | 4194 ft | 156 kts | 76° |
| 2026-04-23 02:55 | -23.45539 | -46.56120 | 3990 ft | 156 kts | 74° |
| 2026-04-23 02:55 | -23.45231 | -46.54990 | 3801 ft | 155 kts | 74° |
| 2026-04-23 02:55 | -23.44932 | -46.53882 | 3593 ft | 154 kts | 74° |
| 2026-04-23 02:55 | -23.44629 | -46.52765 | 3386 ft | 154 kts | 75° |
| 2026-04-23 02:56 | -23.44328 | -46.51652 | 3159 ft | 152 kts | 75° |
| 2026-04-23 02:56 | -23.44029 | -46.50548 | 2968 ft | 153 kts | 75° |
| 2026-04-23 02:56 | -23.43724 | -46.49437 | 2701 ft | 152 kts | 73° |
| 2026-04-23 02:56 | -23.43432 | -46.48342 | 2507 ft | 150 kts | 75° |
| 2026-04-23 02:57 | -23.43163 | -46.47352 | 2464 ft | 108 kts | 73° |
| 2026-04-23 02:57 | -23.43022 | -46.46830 | 2470 ft | 27 kts | 73° |
| 2026-04-23 02:57 | -23.42896 | -46.46782 | 2469 ft | 12 kts | 343° |
| 2026-04-23 02:57 | -23.42810 | -46.46810 | 2464 ft | 14 kts | 343° |
| 2026-04-23 02:58 | -23.42773 | -46.46865 | 2464 ft | 10 kts | 260° |
| 2026-04-23 02:58 | -23.42795 | -46.46948 | 2469 ft | 13 kts | 253° |
| 2026-04-23 02:58 | -23.42823 | -46.47052 | 2465 ft | 16 kts | 253° |
| 2026-04-23 02:58 | -23.42857 | -46.47175 | 2465 ft | 18 kts | 253° |
| 2026-04-23 02:59 | -23.42896 | -46.47317 | 2467 ft | 21 kts | 253° |
| 2026-04-23 02:59 | -23.42939 | -46.47477 | 2467 ft | 23 kts | 253° |
| 2026-04-23 02:59 | -23.42987 | -46.47654 | 2465 ft | 26 kts | 253° |
| 2026-04-23 02:59 | -23.43040 | -46.47849 | 2465 ft | 28 kts | 253° |
| 2026-04-23 03:00 | -23.43096 | -46.48054 | 2464 ft | 21 kts | 254° |
| 2026-04-23 03:00 | -23.43027 | -46.48134 | 2468 ft | 17 kts | 356° |
| 2026-04-23 03:00 | -23.42907 | -46.48129 | 2464 ft | 15 kts | 36° |
| 2026-04-23 03:00 | -23.42890 | -46.48065 | 2464 ft | 0 kts | 83° |